KDAG/DAG METAR and TAF weather

Enter ICAO airport designator
Station Type Date Time Source
KDAG METAR 2019/12/16 02:50 UTC NOAA

KDAG 160250Z AUTO 27011KT 10SM CLR 09/M03 A3012 RMK AO2 SLP195 T00941028 53028


Station Type Date Time Source
KDAG Decoded METAR 2019/12/16 02:50 UTC NOAA

BARSTOW-DAGGETT AIRPORT, CA, United States (KDAG) 34-51N 116-47W 587M
Dec 15, 2019 - 09:50 PM EST / 2019.12.16 0250 UTC
Wind: from the W (270 degrees) at 13 MPH (11 KT):0
Visibility: 10 mile(s):0
Sky conditions: clear
Temperature: 48.9 F (9.4 C)
Dew Point: 27.0 F (-2.8 C)
Relative Humidity: 42%
Pressure (altimeter): 30.12 in. Hg (1019 hPa)
Pressure tendency: 0.08 inches (2.8 hPa) higher than three hours ago
ob: KDAG 160250Z AUTO 27011KT 10SM CLR 09/M03 A3012 RMK AO2 SLP195 T00941028 53028
cycle: 3

Station Type Date Time Source
KDAG TAF 2019/12/15 18:39 UTC NOAA

TAF KDAG 151736Z 1518/1618 26020G28KT P6SM SKC
FM152100 30012G20KT P6SM SKC
FM160600 26008KT P6SM SKC

Example: see airport list